Time;durP1;ratioP1;P1;durP2;ratioP2;P2;SDS_P1;SDS_P2;PMS_P1;PMS_P2;Temp;Humidity;BMP_temperature;BMP_pressure;BME280_temperature;BME280_humidity;BME280_pressure;Samples;Min_cycle;Max_cycle;Signal;HPM_P1;HPM_P2
2024/01/31 00:01:33;;;;;;;12.50;5.07;;;6.90;99.90;;;;;;5032771;28;20456;-72
2024/01/31 00:03:59;;;;;;;8.60;4.67;;;6.60;99.90;;;;;;5032033;28;20206;-72
2024/01/31 00:06:24;;;;;;;10.40;4.43;;;6.60;99.90;;;;;;5042976;28;20443;-72
2024/01/31 00:08:50;;;;;;;9.73;3.83;;;7.40;99.90;;;;;;5038671;28;20311;-72
2024/01/31 00:11:15;;;;;;;9.40;4.20;;;7.20;99.90;;;;;;5052517;28;20701;-72
2024/01/31 00:13:41;;;;;;;17.77;4.93;;;6.90;99.90;;;;;;5035204;28;20190;-72
2024/01/31 00:16:06;;;;;;;7.80;4.27;;;6.70;99.90;;;;;;5041774;28;20182;-72
2024/01/31 00:18:32;;;;;;;6.10;3.10;;;6.60;99.90;;;;;;5038717;28;20260;-72
2024/01/31 00:20:57;;;;;;;5.27;3.10;;;6.60;99.90;;;;;;5044509;28;20695;-72
2024/01/31 00:23:23;;;;;;;7.87;3.63;;;6.60;99.90;;;;;;5038709;28;20630;-72
2024/01/31 00:25:49;;;;;;;7.60;3.60;;;6.60;99.90;;;;;;5042102;28;20638;-72
2024/01/31 00:28:15;;;;;;;15.77;5.20;;;6.70;99.90;;;;;;5048959;28;20173;-72
2024/01/31 00:30:40;;;;;;;9.17;4.23;;;6.60;99.90;;;;;;5052050;28;20429;-72
2024/01/31 00:33:06;;;;;;;10.33;4.20;;;7.10;99.90;;;;;;5038169;28;20182;-72
2024/01/31 00:35:31;;;;;;;8.70;4.70;;;6.60;99.90;;;;;;5042052;28;20187;-72
2024/01/31 00:37:57;;;;;;;10.43;4.23;;;6.80;99.90;;;;;;5038297;28;20561;-72
2024/01/31 00:40:23;;;;;;;6.97;3.60;;;6.70;99.90;;;;;;5032102;28;20583;-72
2024/01/31 00:42:48;;;;;;;7.50;3.83;;;6.60;99.90;;;;;;5031809;28;20186;-72
2024/01/31 00:45:14;;;;;;;11.67;4.23;;;6.70;99.90;;;;;;5031302;28;20205;-72
2024/01/31 00:47:40;;;;;;;9.93;5.47;;;6.70;99.90;;;;;;5034697;28;20209;-72
2024/01/31 00:50:06;;;;;;;9.47;5.87;;;7.50;99.90;;;;;;5040224;28;20690;-72
2024/01/31 00:52:32;;;;;;;9.20;4.93;;;6.70;99.90;;;;;;5048398;28;20420;-72
2024/01/31 00:54:57;;;;;;;15.33;5.00;;;7.40;99.90;;;;;;5045223;28;20837;-72
2024/01/31 00:57:23;;;;;;;13.30;5.20;;;7.50;99.90;;;;;;5031721;28;20190;-72
2024/01/31 00:59:48;;;;;;;12.27;4.70;;;6.60;99.90;;;;;;5041517;28;20646;-72
2024/01/31 01:02:16;;;;;;;10.27;4.60;;;6.80;99.90;;;;;;5035212;28;20201;-72
2024/01/31 01:04:42;;;;;;;7.20;4.37;;;7.40;99.90;;;;;;5040938;28;20315;-72
2024/01/31 01:07:07;;;;;;;7.47;3.63;;;7.40;99.90;;;;;;5048225;28;20475;-72
2024/01/31 01:09:34;;;;;;;5.80;3.53;;;7.10;99.90;;;;;;5031116;28;20446;-72
2024/01/31 01:12:00;;;;;;;8.97;3.70;;;7.00;99.90;;;;;;5031447;28;20189;-72
2024/01/31 01:14:26;;;;;;;6.23;4.13;;;6.70;99.90;;;;;;5030837;28;20433;-72
2024/01/31 01:16:51;;;;;;;12.53;5.20;;;6.90;99.90;;;;;;5034485;28;20610;-72
2024/01/31 01:19:17;;;;;;;10.17;4.30;;;7.40;99.90;;;;;;5046783;28;20193;-72
2024/01/31 01:21:42;;;;;;;12.93;3.67;;;7.10;99.90;;;;;;5033755;28;20200;-72
2024/01/31 01:24:08;;;;;;;7.27;3.97;;;6.80;99.90;;;;;;5051211;28;20280;-72
2024/01/31 01:26:39;;;;;;;12.73;3.63;;;7.10;99.90;;;;;;5035120;28;20187;-72
2024/01/31 01:29:04;;;;;;;8.87;4.27;;;6.60;99.90;;;;;;5031378;28;20182;-72
2024/01/31 01:31:30;;;;;;;5.23;3.13;;;7.60;99.90;;;;;;5034548;28;20436;-72
2024/01/31 01:33:55;;;;;;;7.40;3.40;;;6.60;99.90;;;;;;5050848;28;20235;-72
2024/01/31 01:36:21;;;;;;;14.00;3.23;;;7.20;99.90;;;;;;5037535;28;20201;-72
2024/01/31 01:38:46;;;;;;;12.73;3.80;;;7.30;99.90;;;;;;5034703;28;20265;-72
2024/01/31 01:41:12;;;;;;;10.07;3.50;;;7.20;99.90;;;;;;5047910;28;20772;-72
2024/01/31 01:43:37;;;;;;;6.70;3.33;;;6.70;99.90;;;;;;5043883;28;20233;-72
2024/01/31 01:46:10;;;;;;;3.17;2.27;;;6.70;99.90;;;;;;5037971;28;20186;-72
2024/01/31 01:48:37;;;;;;;8.33;3.43;;;6.70;99.90;;;;;;5044240;28;20228;-72
2024/01/31 01:51:03;;;;;;;8.53;3.53;;;7.30;99.90;;;;;;5039649;28;20943;-72
2024/01/31 01:53:30;;;;;;;5.00;2.73;;;6.70;99.90;;;;;;5054588;28;20416;-72
2024/01/31 01:55:56;;;;;;;8.60;3.17;;;6.70;99.90;;;;;;5054838;28;20767;-72
2024/01/31 01:58:21;;;;;;;8.17;2.70;;;6.60;99.90;;;;;;5043110;28;20486;-72
2024/01/31 02:00:48;;;;;;;7.13;3.30;;;7.40;99.90;;;;;;5040011;28;20193;-72
2024/01/31 02:03:17;;;;;;;5.77;3.60;;;6.60;99.90;;;;;;5054815;28;21026;-72
2024/01/31 02:05:45;;;;;;;7.37;3.67;;;7.50;99.90;;;;;;5049698;28;20505;-72
2024/01/31 02:08:13;;;;;;;7.93;4.00;;;7.60;99.90;;;;;;5034268;28;20428;-72
2024/01/31 02:10:39;;;;;;;12.43;4.37;;;7.20;99.90;;;;;;5048406;28;21003;-72
2024/01/31 02:13:04;;;;;;;8.27;3.80;;;6.50;99.90;;;;;;5034826;28;20429;-72
2024/01/31 02:15:29;;;;;;;5.30;2.77;;;6.50;99.90;;;;;;5034002;28;20188;-72
2024/01/31 02:17:55;;;;;;;5.90;3.20;;;6.40;99.90;;;;;;5034414;28;20214;-72
2024/01/31 02:20:22;;;;;;;10.10;4.03;;;6.60;99.90;;;;;;5046121;28;20189;-72
2024/01/31 02:22:47;;;;;;;15.00;3.67;;;6.40;99.90;;;;;;5042091;28;20575;-72
2024/01/31 02:25:14;;;;;;;5.43;3.27;;;7.30;99.90;;;;;;5047666;28;20560;-72
2024/01/31 02:27:40;;;;;;;7.43;3.43;;;7.40;99.90;;;;;;5046883;28;20186;-72
2024/01/31 02:30:07;;;;;;;5.60;3.33;;;7.40;99.90;;;;;;5035658;28;20429;-72
2024/01/31 02:32:33;;;;;;;7.10;3.20;;;6.50;99.90;;;;;;5034547;28;20498;-72
2024/01/31 02:34:58;;;;;;;6.47;3.20;;;7.20;99.90;;;;;;5039869;28;20936;-72
2024/01/31 02:37:24;;;;;;;8.50;3.43;;;7.20;99.90;;;;;;5041690;28;20182;-72
2024/01/31 02:39:49;;;;;;;4.60;2.90;;;7.50;99.90;;;;;;5047298;28;20711;-72
2024/01/31 02:42:15;;;;;;;5.83;3.40;;;6.50;99.90;;;;;;5034405;28;20218;-72
2024/01/31 02:44:41;;;;;;;7.90;3.33;;;7.30;99.90;;;;;;5033184;28;20198;-73
2024/01/31 02:47:06;;;;;;;9.70;3.50;;;6.50;99.90;;;;;;5046113;28;20648;-72
2024/01/31 02:49:32;;;;;;;12.00;2.87;;;6.60;99.90;;;;;;5046537;28;20218;-72
2024/01/31 02:51:57;;;;;;;6.17;3.00;;;6.50;99.90;;;;;;5033645;28;20182;-72
2024/01/31 02:54:22;;;;;;;7.60;3.03;;;7.00;99.90;;;;;;5033477;28;20623;-72
2024/01/31 02:56:48;;;;;;;5.63;2.60;;;6.50;99.90;;;;;;5045862;28;20192;-72
2024/01/31 02:59:13;;;;;;;5.83;2.57;;;7.50;99.90;;;;;;5053823;28;20182;-72
2024/01/31 03:01:49;;;;;;;4.83;2.73;;;7.20;99.90;;;;;;5054059;28;20209;-72
2024/01/31 03:04:15;;;;;;;4.90;2.57;;;7.20;99.90;;;;;;5032533;28;20198;-72
2024/01/31 03:06:40;;;;;;;6.93;2.60;;;6.60;99.90;;;;;;5033676;28;20417;-72
2024/01/31 03:09:06;;;;;;;8.77;3.30;;;7.20;99.90;;;;;;5040072;28;20262;-72
2024/01/31 03:11:31;;;;;;;7.67;2.50;;;7.20;99.90;;;;;;5046330;28;20186;-72
2024/01/31 03:13:57;;;;;;;8.90;3.20;;;7.40;99.90;;;;;;5039770;28;20200;-72
2024/01/31 03:16:22;;;;;;;4.53;2.40;;;7.50;99.90;;;;;;5033116;28;20551;-72
2024/01/31 03:18:48;;;;;;;5.03;2.80;;;6.70;99.90;;;;;;5038500;28;20254;-72
2024/01/31 03:21:13;;;;;;;10.00;2.53;;;7.70;99.90;;;;;;5033551;28;20621;-72
2024/01/31 03:23:39;;;;;;;9.10;3.30;;;6.60;99.90;;;;;;5038275;28;20269;-72
2024/01/31 03:26:04;;;;;;;6.53;3.10;;;7.20;99.90;;;;;;5053520;28;20228;-71
2024/01/31 03:28:30;;;;;;;7.67;3.90;;;7.20;99.90;;;;;;5053464;28;20752;-72
2024/01/31 03:30:55;;;;;;;7.23;3.80;;;6.30;99.90;;;;;;5053590;28;20490;-72
2024/01/31 03:33:21;;;;;;;7.03;2.97;;;6.20;99.90;;;;;;5034589;28;20257;-71
2024/01/31 03:35:46;;;;;;;10.10;3.70;;;7.20;99.90;;;;;;5033380;28;20555;-71
2024/01/31 03:38:12;;;;;;;8.23;3.60;;;6.50;99.90;;;;;;5043311;28;20193;-71
2024/01/31 03:40:38;;;;;;;5.63;3.37;;;6.40;99.90;;;;;;5053380;28;20193;-72
2024/01/31 03:43:04;;;;;;;7.30;3.20;;;6.00;99.90;;;;;;5047704;28;20268;-71
2024/01/31 03:45:29;;;;;;;6.30;3.50;;;6.00;99.90;;;;;;5032450;28;20541;-70
2024/01/31 03:47:55;;;;;;;7.13;3.23;;;;;;;;;;5045809;28;20281;-70
2024/01/31 03:50:21;;;;;;;11.03;3.80;;;6.00;99.90;;;;;;5032881;28;20713;-71
2024/01/31 03:52:47;;;;;;;11.13;4.00;;;6.00;99.90;;;;;;5037944;28;20193;-70
2024/01/31 03:55:12;;;;;;;14.73;4.40;;;6.00;99.90;;;;;;5040215;28;20190;-70
2024/01/31 03:57:38;;;;;;;9.07;4.27;;;6.00;99.90;;;;;;5037862;28;20196;-71
2024/01/31 04:00:08;;;;;;;7.23;3.87;;;6.90;99.90;;;;;;5040574;28;20190;-72
2024/01/31 04:02:34;;;;;;;9.20;3.53;;;6.10;99.90;;;;;;5038518;28;20221;-71
2024/01/31 04:04:59;;;;;;;5.00;3.60;;;6.10;99.90;;;;;;5051628;28;20499;-71
2024/01/31 04:07:26;;;;;;;6.07;3.43;;;7.10;99.90;;;;;;5052302;28;20186;-71
2024/01/31 04:09:52;;;;;;;5.97;3.53;;;6.20;99.90;;;;;;5046198;28;20185;-71
2024/01/31 04:12:17;;;;;;;8.37;3.20;;;7.00;99.90;;;;;;5038192;28;20421;-71
2024/01/31 04:14:43;;;;;;;7.73;4.07;;;7.40;99.90;;;;;;5052244;28;20197;-71
2024/01/31 04:17:08;;;;;;;9.10;4.40;;;7.00;99.90;;;;;;5039001;28;20542;-71
2024/01/31 04:19:34;;;;;;;8.57;3.93;;;6.20;99.90;;;;;;5039488;28;20197;-71
2024/01/31 04:21:59;;;;;;;9.60;3.50;;;7.00;99.90;;;;;;5037840;28;20597;-71
2024/01/31 04:24:25;;;;;;;11.53;3.63;;;6.20;99.90;;;;;;5039607;28;20237;-71
2024/01/31 04:26:51;;;;;;;6.57;3.77;;;7.40;99.90;;;;;;5051323;28;20189;-71
2024/01/31 04:29:17;;;;;;;11.77;3.80;;;6.60;99.90;;;;;;5040014;28;20201;-71
2024/01/31 04:31:42;;;;;;;9.90;3.13;;;7.30;99.90;;;;;;5031975;28;20921;-72
2024/01/31 04:34:08;;;;;;;6.00;3.30;;;7.40;99.90;;;;;;5044035;28;20182;-71
2024/01/31 04:36:34;;;;;;;8.07;4.27;;;7.20;99.90;;;;;;5038381;28;20189;-71
2024/01/31 04:39:00;;;;;;;5.27;3.13;;;7.70;99.90;;;;;;5044761;28;20419;-71
2024/01/31 04:41:25;;;;;;;8.30;3.37;;;7.00;99.90;;;;;;5044235;28;20182;-71
2024/01/31 04:43:53;;;;;;;8.57;3.43;;;6.90;99.90;;;;;;5040443;28;20559;-71
2024/01/31 04:46:19;;;;;;;8.40;3.37;;;6.50;99.90;;;;;;5050500;28;20211;-72
2024/01/31 04:48:44;;;;;;;9.40;4.57;;;7.50;99.90;;;;;;5039687;28;20448;-71
2024/01/31 04:51:10;;;;;;;8.60;4.00;;;7.50;99.90;;;;;;5031068;28;20457;-71
2024/01/31 04:53:35;;;;;;;7.47;3.93;;;6.40;99.90;;;;;;5031608;28;20536;-71
2024/01/31 04:56:01;;;;;;;8.83;3.30;;;7.20;99.90;;;;;;5037189;28;20205;-71
2024/01/31 04:58:26;;;;;;;10.47;4.23;;;7.10;99.90;;;;;;5039701;28;20313;-71
2024/01/31 05:00:52;;;;;;;7.30;3.87;;;6.80;99.90;;;;;;5036138;28;20189;-71
2024/01/31 05:03:17;;;;;;;6.63;4.03;;;7.40;99.90;;;;;;5039880;28;20198;-71
2024/01/31 05:05:43;;;;;;;7.40;3.63;;;6.80;99.90;;;;;;5031677;28;20214;-71
2024/01/31 05:08:08;;;;;;;8.40;4.40;;;7.10;99.90;;;;;;5031235;28;20293;-71
2024/01/31 05:10:35;;;;;;;8.53;4.37;;;7.20;99.90;;;;;;5031431;28;20210;-71
2024/01/31 05:13:01;;;;;;;10.87;5.13;;;7.00;99.90;;;;;;5031704;28;20545;-70
2024/01/31 05:15:28;;;;;;;8.77;3.67;;;6.30;99.90;;;;;;5049755;28;20436;-71
2024/01/31 05:17:54;;;;;;;6.97;3.80;;;7.70;99.90;;;;;;5050260;28;20767;-71
2024/01/31 05:20:19;;;;;;;7.60;4.00;;;6.30;99.90;;;;;;5033170;28;20426;-71
2024/01/31 05:22:45;;;;;;;10.33;3.67;;;6.30;99.90;;;;;;5042768;28;20225;-71
2024/01/31 05:25:10;;;;;;;10.67;4.23;;;6.90;99.90;;;;;;5046173;28;20230;-72
2024/01/31 05:27:37;;;;;;;12.83;4.37;;;7.30;99.90;;;;;;5031282;28;20254;-71
2024/01/31 05:30:06;;;;;;;9.50;5.03;;;6.40;99.90;;;;;;5030595;28;20429;-72
2024/01/31 05:32:32;;;;;;;8.03;4.57;;;6.40;99.90;;;;;;5031538;28;20187;-72
2024/01/31 05:34:57;;;;;;;9.47;5.17;;;6.40;99.90;;;;;;5049331;28;20431;-71
2024/01/31 05:37:23;;;;;;;10.90;5.13;;;7.30;99.90;;;;;;5045690;28;20192;-72
2024/01/31 05:39:48;;;;;;;6.97;3.80;;;6.80;99.90;;;;;;5035673;28;20208;-71
2024/01/31 05:42:14;;;;;;;6.20;3.60;;;7.60;99.90;;;;;;5039624;28;20221;-72
2024/01/31 05:44:39;;;;;;;7.93;3.70;;;6.30;99.90;;;;;;5042401;28;20984;-71
2024/01/31 05:47:05;;;;;;;13.63;4.43;;;7.00;99.90;;;;;;5051370;28;20224;-72
2024/01/31 05:49:30;;;;;;;6.90;3.97;;;6.30;99.90;;;;;;5044074;28;20536;-72
2024/01/31 05:51:56;;;;;;;10.47;5.63;;;6.20;99.90;;;;;;5031322;28;20815;-71
2024/01/31 05:54:21;;;;;;;20.23;7.90;;;5.40;99.90;;;;;;5044001;28;20236;-72
2024/01/31 05:56:47;;;;;;;10.37;5.80;;;7.20;99.90;;;;;;5030863;28;20603;-72
2024/01/31 05:59:12;;;;;;;10.43;5.73;;;6.20;99.90;;;;;;5043054;28;20209;-72
2024/01/31 06:01:38;;;;;;;10.33;5.17;;;7.50;99.90;;;;;;5048619;28;20220;-72
2024/01/31 06:04:05;;;;;;;18.63;5.80;;;7.30;99.90;;;;;;5044907;28;20214;-72
2024/01/31 06:06:31;;;;;;;11.53;6.07;;;6.20;99.90;;;;;;5043005;28;20213;-72
2024/01/31 06:08:56;;;;;;;19.30;7.10;;;7.20;99.90;;;;;;5050116;28;20448;-72
2024/01/31 06:11:22;;;;;;;19.80;6.73;;;7.70;99.90;;;;;;5050538;28;20704;-72
2024/01/31 06:13:47;;;;;;;11.77;5.97;;;7.20;99.90;;;;;;5045013;28;20187;-72
2024/01/31 06:16:14;;;;;;;12.90;5.87;;;7.00;99.90;;;;;;5042954;28;20608;-72
2024/01/31 06:18:40;;;;;;;11.00;5.30;;;6.10;99.90;;;;;;5036587;28;20178;-72
2024/01/31 06:21:06;;;;;;;12.07;6.00;;;6.10;99.90;;;;;;5031442;28;20428;-72
2024/01/31 06:23:31;;;;;;;9.27;4.43;;;7.00;99.90;;;;;;5030244;28;20556;-72
2024/01/31 06:26:00;;;;;;;20.37;7.93;;;7.10;99.90;;;;;;5030598;28;20203;-72
2024/01/31 06:28:26;;;;;;;22.37;10.27;;;7.60;99.90;;;;;;5043831;28;20687;-72
2024/01/31 06:30:59;;;;;;;22.30;10.70;;;7.50;99.90;;;;;;5040038;28;20698;-72
2024/01/31 06:33:29;;;;;;;21.43;9.07;;;7.00;99.90;;;;;;5020722;28;20178;-72
2024/01/31 06:35:55;;;;;;;21.53;8.53;;;7.20;99.90;;;;;;5034133;28;20428;-72
2024/01/31 06:38:21;;;;;;;13.23;6.30;;;7.20;99.90;;;;;;5041157;28;20420;-72
2024/01/31 06:40:46;;;;;;;15.03;7.20;;;6.90;99.90;;;;;;5039911;28;20479;-72
2024/01/31 06:43:12;;;;;;;9.27;5.37;;;7.20;99.90;;;;;;5034093;28;20261;-72
2024/01/31 06:45:38;;;;;;;14.97;6.60;;;7.30;99.90;;;;;;5047064;28;20201;-72
2024/01/31 06:48:04;;;;;;;9.93;6.57;;;7.40;99.90;;;;;;5040744;28;20601;-72
2024/01/31 06:50:29;;;;;;;21.47;8.53;;;6.10;99.90;;;;;;5039322;28;20495;-72
2024/01/31 06:52:55;;;;;;;13.03;6.40;;;7.40;99.90;;;;;;5053586;28;20174;-72
2024/01/31 06:55:20;;;;;;;18.07;7.00;;;6.70;99.90;;;;;;5040370;28;20227;-72
2024/01/31 06:57:46;;;;;;;17.80;7.77;;;7.30;99.90;;;;;;5053531;28;20189;-73
2024/01/31 07:00:12;;;;;;;15.30;7.80;;;6.10;99.90;;;;;;5045609;28;20682;-70
2024/01/31 07:02:38;;;;;;;18.03;8.40;;;6.20;99.90;;;;;;5040090;28;20202;-70
2024/01/31 07:05:04;;;;;;;18.17;7.90;;;7.60;99.90;;;;;;5039591;28;20514;-70
2024/01/31 07:07:30;;;;;;;28.20;7.77;;;6.20;99.90;;;;;;5052488;28;20431;-70
2024/01/31 07:09:55;;;;;;;15.73;7.03;;;7.40;99.90;;;;;;5038652;28;20513;-71
2024/01/31 07:12:21;;;;;;;16.33;6.60;;;7.50;99.90;;;;;;5032983;28;20537;-71
2024/01/31 07:14:46;;;;;;;14.97;6.93;;;7.70;99.90;;;;;;5032666;28;20194;-72
2024/01/31 07:17:12;;;;;;;11.77;6.10;;;7.60;99.90;;;;;;5039958;28;20246;-71
2024/01/31 07:19:42;;;;;;;17.57;6.53;;;7.60;99.90;;;;;;5039520;28;20191;-72
2024/01/31 07:22:08;;;;;;;23.57;9.13;;;7.70;99.90;;;;;;5020789;28;20178;-72
2024/01/31 07:24:34;;;;;;;18.43;7.03;;;7.30;99.90;;;;;;5046605;28;20951;-71
2024/01/31 07:27:00;;;;;;;18.70;7.90;;;7.60;99.90;;;;;;5033676;28;20190;-71
2024/01/31 07:29:26;;;;;;;27.27;8.73;;;6.10;99.90;;;;;;5032765;28;20433;-71
2024/01/31 07:31:51;;;;;;;19.90;6.10;;;6.90;99.90;;;;;;5038484;28;20248;-71
2024/01/31 07:34:17;;;;;;;20.97;7.43;;;6.20;99.90;;;;;;5033091;28;20218;-71
2024/01/31 07:36:43;;;;;;;17.90;8.30;;;7.80;99.90;;;;;;5046642;28;20657;-71
2024/01/31 07:39:08;;;;;;;9.70;4.77;;;7.10;99.90;;;;;;5020856;28;20183;-70
2024/01/31 07:41:34;;;;;;;12.93;4.43;;;6.80;99.90;;;;;;5040285;28;20197;-71
2024/01/31 07:43:59;;;;;;;11.53;4.87;;;7.50;99.90;;;;;;5047359;28;20994;-71
2024/01/31 07:46:25;;;;;;;12.00;6.27;;;8.00;99.90;;;;;;5045670;28;20524;-71
2024/01/31 07:48:50;;;;;;;14.30;4.63;;;7.50;99.90;;;;;;5032419;28;20190;-73
2024/01/31 07:51:16;;;;;;;13.70;4.53;;;7.80;99.90;;;;;;5015738;28;20277;-72
2024/01/31 07:53:41;;;;;;;8.40;4.63;;;7.40;99.90;;;;;;5014094;28;20191;-72
2024/01/31 07:56:07;;;;;;;9.20;4.33;;;8.10;99.90;;;;;;5039655;28;20228;-71
2024/01/31 07:58:33;;;;;;;7.70;3.60;;;7.90;99.90;;;;;;5052948;28;20239;-71
2024/01/31 08:00:58;;;;;;;6.87;4.07;;;7.90;99.90;;;;;;5045389;28;20197;-71
2024/01/31 08:03:24;;;;;;;6.83;3.37;;;7.50;99.90;;;;;;5045837;28;20224;-72
2024/01/31 08:05:50;;;;;;;14.40;3.13;;;6.70;99.90;;;;;;5052604;28;20594;-71
2024/01/31 08:08:16;;;;;;;12.40;4.80;;;7.90;99.90;;;;;;5038690;28;20180;-71
2024/01/31 08:10:42;;;;;;;8.93;4.20;;;8.00;99.90;;;;;;5026252;28;20420;-71
2024/01/31 08:13:07;;;;;;;8.50;3.37;;;8.00;99.90;;;;;;5038908;28;20459;-71
2024/01/31 08:15:34;;;;;;;5.40;3.07;;;8.00;99.90;;;;;;5032366;28;20195;-71
2024/01/31 08:18:00;;;;;;;6.93;3.80;;;8.00;99.90;;;;;;5027447;28;20198;-71
2024/01/31 08:20:26;;;;;;;11.50;4.53;;;7.60;99.90;;;;;;5046294;28;21176;-71
2024/01/31 08:22:51;;;;;;;11.23;5.57;;;7.30;99.90;;;;;;5031386;28;20524;-71
2024/01/31 08:25:17;;;;;;;7.50;4.17;;;7.70;99.90;;;;;;5032076;28;20209;-71
2024/01/31 08:27:43;;;;;;;8.80;4.20;;;6.70;99.90;;;;;;5032267;28;20237;-71
2024/01/31 08:30:09;;;;;;;9.70;3.97;;;8.20;99.90;;;;;;5037945;28;20209;-71
2024/01/31 08:32:34;;;;;;;9.20;4.47;;;6.80;99.90;;;;;;5045331;28;20251;-71
2024/01/31 08:35:01;;;;;;;14.10;5.33;;;6.90;99.90;;;;;;5051625;28;20901;-71
2024/01/31 08:37:27;;;;;;;11.80;6.20;;;8.70;99.90;;;;;;5038866;28;20187;-71
2024/01/31 08:39:52;;;;;;;11.73;4.97;;;8.00;99.90;;;;;;5051272;28;20446;-71
2024/01/31 08:42:18;;;;;;;11.33;4.20;;;8.40;99.90;;;;;;5039469;28;20530;-71
2024/01/31 08:44:43;;;;;;;7.63;3.97;;;8.20;99.90;;;;;;5037812;28;20197;-72
2024/01/31 08:47:09;;;;;;;10.57;4.40;;;6.90;99.90;;;;;;5051801;28;20650;-71
2024/01/31 08:49:34;;;;;;;9.07;4.10;;;8.20;99.90;;;;;;5032050;28;20222;-71
2024/01/31 08:52:00;;;;;;;11.57;5.13;;;6.80;99.90;;;;;;5031041;28;20567;-71
2024/01/31 08:54:25;;;;;;;9.73;3.37;;;8.10;99.90;;;;;;5050234;28;20269;-71
2024/01/31 08:56:51;;;;;;;8.80;4.40;;;8.20;99.90;;;;;;5039997;28;20277;-71
2024/01/31 08:59:17;;;;;;;8.67;4.17;;;7.00;99.90;;;;;;5031607;28;20976;-71
2024/01/31 09:01:46;;;;;;;10.60;4.63;;;8.40;99.90;;;;;;5031618;28;20190;-71
2024/01/31 09:04:12;;;;;;;9.17;3.70;;;8.30;99.90;;;;;;5036827;28;20464;-71
2024/01/31 09:06:39;;;;;;;6.23;3.70;;;7.20;99.90;;;;;;5039167;28;20417;-71
2024/01/31 09:09:06;;;;;;;7.20;3.93;;;8.40;99.90;;;;;;5036722;28;20416;-71
2024/01/31 09:11:32;;;;;;;9.10;4.10;;;8.10;99.90;;;;;;5051719;28;20420;-71
2024/01/31 09:13:57;;;;;;;7.43;4.03;;;8.80;99.90;;;;;;5051540;28;20430;-72
2024/01/31 09:16:23;;;;;;;8.20;3.47;;;9.00;99.90;;;;;;5051272;28;20485;-71
2024/01/31 09:18:49;;;;;;;8.67;4.30;;;8.70;99.90;;;;;;5050254;28;20695;-71
2024/01/31 09:21:21;;;;;;;7.43;3.97;;;8.70;99.90;;;;;;5037116;28;20174;-71
2024/01/31 09:23:47;;;;;;;8.43;4.23;;;8.70;99.90;;;;;;5017870;28;20417;-71
2024/01/31 09:26:12;;;;;;;9.00;4.90;;;8.40;99.90;;;;;;5031425;28;20445;-71
2024/01/31 09:28:39;;;;;;;6.20;4.07;;;9.40;99.90;;;;;;5037971;28;20757;-71
2024/01/31 09:31:04;;;;;;;12.93;4.50;;;7.40;99.90;;;;;;5046405;28;20190;-71
2024/01/31 09:33:30;;;;;;;9.63;3.87;;;9.30;99.90;;;;;;5037481;28;21043;-71
2024/01/31 09:35:55;;;;;;;11.23;4.37;;;9.40;99.90;;;;;;5038066;28;20193;-71
2024/01/31 09:38:25;;;;;;;11.20;4.20;;;7.40;99.90;;;;;;5036835;28;20197;-71
2024/01/31 09:40:51;;;;;;;7.30;4.03;;;7.50;99.90;;;;;;5037573;28;20171;-72
2024/01/31 09:43:16;;;;;;;6.67;4.07;;;7.70;99.90;;;;;;5052435;28;20447;-70
2024/01/31 09:45:43;;;;;;;7.20;3.93;;;8.70;99.90;;;;;;5039510;28;20313;-70
2024/01/31 09:48:12;;;;;;;8.53;3.90;;;8.80;99.90;;;;;;5050672;28;20229;-71
2024/01/31 09:50:37;;;;;;;13.07;5.97;;;9.30;99.90;;;;;;5036655;28;20488;-71
2024/01/31 09:53:04;;;;;;;17.23;8.33;;;9.50;99.90;;;;;;5038056;28;20459;-71
2024/01/31 09:55:30;;;;;;;12.57;5.63;;;7.90;99.90;;;;;;5036380;28;20540;-72
2024/01/31 09:57:56;;;;;;;23.20;7.27;;;8.50;99.90;;;;;;5039175;28;20961;-71
2024/01/31 10:00:22;;;;;;;13.00;6.70;;;7.90;99.90;;;;;;5034699;28;20496;-71
2024/01/31 10:02:49;;;;;;;22.10;5.30;;;7.90;99.90;;;;;;5029467;28;20261;-72
2024/01/31 10:05:14;;;;;;;13.00;5.93;;;9.30;99.90;;;;;;5034793;28;20198;-71
2024/01/31 10:07:40;;;;;;;11.63;5.60;;;9.50;99.90;;;;;;5051914;28;20420;-71
2024/01/31 10:10:06;;;;;;;34.63;6.23;;;8.90;99.90;;;;;;5051900;28;20244;-71
2024/01/31 10:12:31;;;;;;;18.17;8.17;;;8.20;99.90;;;;;;5033492;28;20202;-72
2024/01/31 10:14:57;;;;;;;16.77;6.73;;;8.60;99.90;;;;;;5046640;28;20451;-72
2024/01/31 10:17:23;;;;;;;13.33;6.63;;;8.70;99.90;;;;;;5033175;28;20583;-72
2024/01/31 10:19:49;;;;;;;11.50;5.07;;;8.40;99.90;;;;;;5038764;28;20178;-71
2024/01/31 10:22:15;;;;;;;6.03;4.30;;;9.60;99.90;;;;;;5032770;28;20440;-72
2024/01/31 10:24:45;;;;;;;12.97;4.97;;;8.40;99.90;;;;;;5047645;28;20459;-71
2024/01/31 10:27:10;;;;;;;8.73;4.53;;;9.10;99.90;;;;;;5053084;28;20440;-71
2024/01/31 10:29:39;;;;;;;13.00;4.80;;;8.50;99.90;;;;;;5053372;28;20467;-72
2024/01/31 10:32:05;;;;;;;18.93;5.10;;;9.60;99.90;;;;;;5039826;28;20662;-71
2024/01/31 10:34:34;;;;;;;13.00;5.50;;;8.70;99.90;;;;;;5041618;28;20425;-71
2024/01/31 10:37:01;;;;;;;10.60;5.87;;;9.20;99.90;;;;;;5048280;28;20448;-71
2024/01/31 10:39:27;;;;;;;7.70;4.50;;;8.80;99.90;;;;;;5033541;28;20447;-72
2024/01/31 10:41:55;;;;;;;10.50;5.37;;;9.80;99.90;;;;;;5033713;28;20524;-71
2024/01/31 10:44:21;;;;;;;9.10;4.53;;;10.20;99.90;;;;;;5036002;28;20542;-71
2024/01/31 10:46:47;;;;;;;8.07;3.93;;;8.90;99.90;;;;;;5053155;28;20462;-72
2024/01/31 10:49:16;;;;;;;8.80;3.80;;;9.00;99.90;;;;;;5035774;28;20457;-72
2024/01/31 10:51:45;;;;;;;6.80;3.63;;;9.20;99.90;;;;;;5032404;28;20178;-71
2024/01/31 10:54:12;;;;;;;8.30;4.07;;;9.30;99.90;;;;;;5049329;28;20874;-71
2024/01/31 10:56:38;;;;;;;12.23;5.00;;;9.80;99.90;;;;;;5050122;28;20412;-72
2024/01/31 10:59:06;;;;;;;8.10;2.93;;;9.40;99.90;;;;;;5042854;28;20428;-72
2024/01/31 11:01:31;;;;;;;10.10;3.93;;;9.40;99.90;;;;;;5042769;28;20526;-72
2024/01/31 11:03:57;;;;;;;7.50;4.90;;;9.70;99.90;;;;;;5051680;28;20424;-71
2024/01/31 11:06:24;;;;;;;11.60;3.67;;;9.70;99.90;;;;;;5042493;28;20190;-72
2024/01/31 11:08:50;;;;;;;14.80;4.57;;;9.70;99.90;;;;;;5031585;28;20182;-72
2024/01/31 11:11:19;;;;;;;4.50;2.90;;;9.80;99.90;;;;;;5032620;28;20421;-72
2024/01/31 11:13:44;;;;;;;8.17;3.77;;;10.00;99.90;;;;;;5049125;28;20178;-72
2024/01/31 11:16:10;;;;;;;9.20;3.80;;;9.90;99.90;;;;;;5050795;28;20428;-72
2024/01/31 11:18:36;;;;;;;5.60;3.47;;;9.90;99.90;;;;;;5034803;28;20190;-72
2024/01/31 11:21:06;;;;;;;7.83;2.93;;;10.00;99.90;;;;;;5050413;28;20190;-72
2024/01/31 11:23:33;;;;;;;8.20;4.17;;;10.10;99.90;;;;;;5047410;28;20404;-72
2024/01/31 11:26:01;;;;;;;5.30;2.80;;;10.20;99.90;;;;;;5041247;28;20582;-72
2024/01/31 11:28:27;;;;;;;5.60;3.43;;;10.20;99.90;;;;;;5045242;28;20421;-72
2024/01/31 11:30:53;;;;;;;6.00;3.23;;;10.20;99.90;;;;;;5036177;28;20436;-72
2024/01/31 11:33:19;;;;;;;11.50;4.07;;;10.20;99.90;;;;;;5045003;28;20429;-72
2024/01/31 11:35:46;;;;;;;7.70;3.87;;;10.20;99.90;;;;;;5041970;28;20229;-72
2024/01/31 11:38:12;;;;;;;8.07;4.00;;;10.20;99.90;;;;;;5030211;28;20449;-72
2024/01/31 11:40:38;;;;;;;6.90;3.50;;;10.20;99.90;;;;;;5023257;28;20421;-72
2024/01/31 11:43:04;;;;;;;9.30;4.33;;;10.30;99.90;;;;;;5023923;28;20428;-72
2024/01/31 11:45:30;;;;;;;12.33;4.60;;;10.50;99.90;;;;;;5019371;28;20214;-71
2024/01/31 11:47:57;;;;;;;6.27;3.50;;;10.60;99.90;;;;;;5025899;28;20430;-71
2024/01/31 11:50:24;;;;;;;9.20;3.27;;;10.40;99.90;;;;;;5020614;28;20289;-71
2024/01/31 11:52:51;;;;;;;6.10;3.50;;;10.40;99.90;;;;;;5026314;28;20433;-71
2024/01/31 11:55:21;;;;;;;27.03;3.77;;;10.60;99.90;;;;;;5023801;28;20459;-71
2024/01/31 11:57:46;;;;;;;7.27;3.70;;;10.70;99.90;;;;;;5023383;28;20973;-71
2024/01/31 12:00:13;;;;;;;8.17;3.50;;;10.70;99.90;;;;;;5026956;28;20456;-71
2024/01/31 12:02:38;;;;;;;12.63;3.10;;;10.90;99.90;;;;;;5016398;28;20190;-72
2024/01/31 12:05:05;;;;;;;4.00;2.60;;;10.80;99.90;;;;;;5026967;28;21134;-73
2024/01/31 12:07:30;;;;;;;5.97;3.37;;;10.80;99.90;;;;;;5028925;28;20646;-72
2024/01/31 12:09:56;;;;;;;14.63;3.40;;;10.80;99.90;;;;;;5029825;28;20437;-72
2024/01/31 12:12:21;;;;;;;6.50;3.07;;;10.80;99.90;;;;;;5022761;28;20182;-72
2024/01/31 12:14:47;;;;;;;5.93;2.70;;;10.90;99.90;;;;;;5024551;28;20715;-71
2024/01/31 12:17:22;;;;;;;6.57;3.27;;;11.00;99.90;;;;;;5025519;28;20194;-71
2024/01/31 12:19:48;;;;;;;9.50;4.23;;;10.90;99.90;;;;;;5024283;28;20179;-73
2024/01/31 12:22:15;;;;;;;7.37;3.20;;;11.00;99.90;;;;;;5042889;28;20516;-73
2024/01/31 12:24:41;;;;;;;7.93;3.60;;;11.10;99.90;;;;;;5030705;28;20526;-72
2024/01/31 12:27:06;;;;;;;9.00;2.60;;;11.20;99.90;;;;;;5030932;28;20421;-72
2024/01/31 12:29:32;;;;;;;7.30;3.40;;;11.10;99.90;;;;;;5031070;28;20258;-72
2024/01/31 12:31:57;;;;;;;6.27;2.87;;;11.00;99.90;;;;;;5012956;28;20205;-72
2024/01/31 12:34:23;;;;;;;5.10;2.90;;;10.90;99.90;;;;;;5043915;28;20205;-73
2024/01/31 12:36:49;;;;;;;6.43;2.53;;;10.80;99.90;;;;;;5030929;28;20191;-73
2024/01/31 12:39:19;;;;;;;12.60;2.73;;;10.90;99.90;;;;;;5044187;28;20587;-73
2024/01/31 12:41:47;;;;;;;7.80;3.00;;;10.80;99.90;;;;;;5039840;28;20590;-73
2024/01/31 12:44:13;;;;;;;8.10;2.60;;;10.60;99.90;;;;;;5048631;28;20455;-73
2024/01/31 12:46:42;;;;;;;10.37;3.23;;;10.50;99.90;;;;;;5030965;28;20484;-73